createdAt,value
2022-09-13T00:01:28.705Z,1.20
2022-09-13T00:03:55.951Z,1.67
2022-09-13T00:06:23.924Z,2.00
2022-09-13T00:08:51.344Z,1.67
2022-09-13T00:11:24.845Z,2.13
2022-09-13T00:13:52.923Z,1.73
2022-09-13T00:16:22.902Z,1.80
2022-09-13T00:18:50.137Z,1.70
2022-09-13T00:21:19.866Z,1.57
2022-09-13T00:23:49.301Z,1.50
2022-09-13T00:26:19.626Z,1.80
2022-09-13T00:28:51.635Z,1.90
2022-09-13T00:31:19.858Z,1.80
2022-09-13T00:33:47.204Z,1.80
2022-09-13T00:36:15.503Z,1.50
2022-09-13T00:38:43.557Z,1.30
2022-09-13T00:41:14.636Z,1.40
2022-09-13T00:43:43.953Z,1.40
2022-09-13T00:46:27.561Z,1.53
2022-09-13T00:49:01.502Z,1.57
2022-09-13T00:51:29.368Z,1.17
2022-09-13T00:53:59.649Z,1.60
2022-09-13T00:56:39.743Z,1.57
2022-09-13T00:59:48.104Z,1.80
2022-09-13T01:02:15.707Z,1.87
2022-09-13T01:04:44.169Z,1.80
2022-09-13T01:07:14.927Z,1.47
2022-09-13T01:09:46.284Z,1.60
2022-09-13T01:12:26.637Z,1.37
2022-09-13T01:14:55.811Z,1.43
2022-09-13T01:17:22.933Z,1.60
2022-09-13T01:19:49.971Z,1.67
2022-09-13T01:22:22.652Z,1.73
2022-09-13T01:25:11.492Z,1.80
2022-09-13T01:27:53.977Z,1.90
2022-09-13T01:30:22.814Z,1.60
2022-09-13T01:33:11.238Z,2.10
2022-09-13T01:36:10.754Z,2.20
2022-09-13T01:38:59.933Z,1.73
2022-09-13T01:41:29.617Z,1.90
2022-09-13T01:44:28.233Z,2.00
2022-09-13T01:47:31.635Z,2.00
2022-09-13T01:50:12.792Z,1.77
2022-09-13T01:52:43.443Z,2.00
2022-09-13T01:55:16.661Z,2.17
2022-09-13T01:58:02.467Z,1.90
2022-09-13T02:00:38.304Z,2.10
2022-09-13T02:03:14.441Z,1.80
2022-09-13T02:06:03.326Z,2.53
2022-09-13T02:08:37.196Z,1.60
2022-09-13T02:11:10.981Z,2.17
2022-09-13T02:13:46.402Z,1.90
2022-09-13T02:16:42.033Z,2.30
2022-09-13T02:19:21.749Z,2.13
2022-09-13T02:21:56.311Z,2.23
2022-09-13T02:24:39.280Z,2.20
2022-09-13T02:27:12.374Z,1.90
2022-09-13T02:29:42.701Z,2.13
2022-09-13T02:32:12.720Z,2.50
2022-09-13T02:34:51.717Z,2.07
2022-09-13T02:37:20.115Z,2.10
2022-09-13T02:39:56.331Z,2.20
2022-09-13T02:42:36.646Z,2.10
2022-09-13T02:45:06.483Z,2.07
2022-09-13T02:47:52.100Z,2.20
2022-09-13T02:50:37.519Z,2.47
2022-09-13T02:53:15.096Z,2.50
2022-09-13T02:56:12.968Z,2.43
2022-09-13T02:59:00.748Z,2.07
2022-09-13T03:01:28.454Z,2.30
2022-09-13T03:03:55.505Z,2.40
2022-09-13T03:06:27.533Z,2.33
2022-09-13T03:08:57.539Z,1.83
2022-09-13T03:11:31.021Z,2.40
2022-09-13T03:14:18.834Z,2.33
2022-09-13T03:17:04.623Z,2.10
2022-09-13T03:20:06.865Z,2.00
2022-09-13T03:23:21.514Z,2.27
2022-09-13T03:26:06.651Z,2.50
2022-09-13T03:28:47.077Z,2.30
2022-09-13T03:31:27.775Z,2.10
2022-09-13T03:34:17.394Z,2.03
2022-09-13T03:37:21.042Z,2.40
2022-09-13T03:39:56.229Z,2.97
2022-09-13T03:42:23.204Z,2.30
2022-09-13T03:44:53.608Z,2.33
2022-09-13T03:47:22.925Z,1.90
2022-09-13T03:49:52.016Z,2.63
2022-09-13T03:52:19.781Z,2.50
2022-09-13T03:54:46.681Z,2.27
2022-09-13T03:57:21.890Z,2.37
2022-09-13T03:59:54.753Z,2.30
2022-09-13T04:02:24.075Z,2.30
2022-09-13T04:04:51.244Z,2.77
2022-09-13T04:07:23.353Z,1.93
2022-09-13T04:09:50.883Z,2.67
2022-09-13T04:12:19.042Z,2.03
2022-09-13T04:14:46.500Z,2.40
2022-09-13T04:17:14.051Z,2.93
2022-09-13T04:19:41.738Z,2.50
2022-09-13T04:22:08.814Z,2.63
2022-09-13T04:24:36.502Z,2.30
2022-09-13T04:27:04.226Z,3.07
2022-09-13T04:29:33.218Z,2.60
2022-09-13T04:32:00.823Z,2.30
2022-09-13T04:34:28.112Z,2.67
2022-09-13T04:36:55.570Z,2.57
2022-09-13T04:39:23.816Z,2.23
2022-09-13T04:41:54.719Z,2.50
2022-09-13T04:44:24.414Z,2.67
2022-09-13T04:46:51.922Z,2.43
2022-09-13T04:49:20.197Z,2.50
2022-09-13T04:51:47.577Z,2.67
2022-09-13T04:54:16.066Z,3.00
2022-09-13T04:56:47.291Z,2.50
2022-09-13T04:59:14.584Z,3.10
2022-09-13T05:01:42.123Z,2.93
2022-09-13T05:04:10.270Z,3.17
2022-09-13T05:06:38.059Z,3.53
2022-09-13T05:09:05.538Z,3.53
2022-09-13T05:11:32.741Z,3.50
2022-09-13T05:14:00.729Z,3.10
2022-09-13T05:16:33.015Z,3.40
2022-09-13T05:19:01.012Z,3.10
2022-09-13T05:21:29.371Z,3.30
2022-09-13T05:23:57.672Z,4.33
2022-09-13T05:26:27.706Z,3.57
2022-09-13T05:28:54.757Z,5.70
2022-09-13T05:31:25.016Z,5.80
2022-09-13T05:34:00.673Z,6.53
2022-09-13T05:36:28.227Z,6.93
2022-09-13T05:39:18.845Z,6.73
2022-09-13T05:41:42.939Z,6.63
2022-09-13T05:44:13.230Z,6.80
2022-09-13T05:46:42.303Z,6.43
2022-09-13T05:49:09.562Z,7.40
2022-09-13T05:51:36.539Z,6.30
2022-09-13T05:54:03.709Z,7.60
2022-09-13T05:56:32.132Z,7.97
2022-09-13T05:58:59.277Z,7.37
2022-09-13T06:01:28.632Z,8.20
2022-09-13T06:03:57.769Z,8.13
2022-09-13T06:06:25.603Z,8.37
2022-09-13T06:08:56.672Z,8.60
2022-09-13T06:11:26.320Z,8.17
2022-09-13T06:13:53.559Z,8.70
2022-09-13T06:16:20.779Z,9.30
2022-09-13T06:18:48.063Z,9.27
2022-09-13T06:21:20.525Z,8.67
2022-09-13T06:23:49.519Z,8.83
2022-09-13T06:26:18.307Z,8.80
2022-09-13T06:28:50.596Z,7.90
2022-09-13T06:31:19.472Z,8.47
2022-09-13T06:33:46.556Z,9.30
2022-09-13T06:36:19.136Z,8.47
2022-09-13T06:38:49.502Z,8.80
2022-09-13T06:41:23.258Z,9.13
2022-09-13T06:43:58.792Z,9.13
2022-09-13T06:46:27.840Z,8.80
2022-09-13T06:48:55.620Z,8.73
2022-09-13T06:51:24.761Z,8.50
2022-09-13T06:53:53.046Z,8.50
2022-09-13T06:56:28.078Z,9.10
2022-09-13T06:59:00.659Z,8.57
2022-09-13T07:01:32.439Z,8.77
2022-09-13T07:04:05.106Z,8.97
2022-09-13T07:06:40.088Z,9.60
2022-09-13T07:09:10.011Z,8.63
2022-09-13T07:11:39.401Z,8.40
2022-09-13T07:14:06.952Z,8.30
2022-09-13T07:16:37.225Z,8.27
2022-09-13T07:19:07.101Z,6.63
2022-09-13T07:21:35.619Z,6.90
2022-09-13T07:24:02.790Z,7.07
2022-09-13T07:26:29.753Z,6.97
2022-09-13T07:28:59.323Z,6.43
2022-09-13T07:31:32.272Z,6.30
2022-09-13T07:34:01.329Z,6.60
2022-09-13T07:36:29.707Z,6.07
2022-09-13T07:38:57.780Z,6.20
2022-09-13T07:41:27.546Z,5.60
2022-09-13T07:43:55.266Z,5.83
2022-09-13T07:46:25.014Z,6.10
2022-09-13T07:48:57.275Z,6.53
2022-09-13T07:51:30.026Z,6.00
2022-09-13T07:53:59.714Z,6.63
2022-09-13T07:56:35.167Z,5.67
2022-09-13T07:59:05.119Z,6.03
2022-09-13T08:01:37.928Z,6.07
2022-09-13T08:04:10.464Z,6.50
2022-09-13T08:06:38.944Z,7.27
2022-09-13T08:09:08.179Z,7.10
2022-09-13T08:11:41.349Z,7.23
2022-09-13T08:14:12.154Z,7.67
2022-09-13T08:16:39.728Z,9.00
2022-09-13T08:19:08.723Z,9.73
2022-09-13T08:21:38.054Z,8.27
2022-09-13T08:24:06.867Z,8.33
2022-09-13T08:26:35.927Z,7.10
2022-09-13T08:29:05.749Z,6.90
2022-09-13T08:31:33.976Z,6.70
2022-09-13T08:34:01.560Z,6.67
2022-09-13T08:36:29.209Z,6.40
2022-09-13T08:38:59.523Z,5.60
2022-09-13T08:41:26.511Z,5.27
2022-09-13T08:44:23.790Z,5.00
2022-09-13T08:46:51.956Z,5.43
2022-09-13T08:49:28.210Z,5.20
2022-09-13T08:51:59.621Z,4.70
2022-09-13T08:54:27.137Z,5.50
2022-09-13T08:57:05.987Z,5.33
2022-09-13T08:59:55.456Z,4.70
2022-09-13T09:02:44.313Z,3.90
2022-09-13T09:05:23.610Z,4.73
2022-09-13T09:07:57.284Z,5.67
2022-09-13T09:10:38.868Z,4.70
2022-09-13T09:13:40.338Z,4.93
2022-09-13T09:16:25.394Z,4.70
2022-09-13T09:18:54.732Z,4.50
2022-09-13T09:21:22.197Z,5.03
2022-09-13T09:23:54.535Z,5.77
2022-09-13T09:26:22.999Z,4.90
2022-09-13T09:29:02.559Z,4.00
2022-09-13T09:31:52.805Z,4.93
2022-09-13T09:34:42.743Z,3.97
2022-09-13T09:37:21.049Z,5.17
2022-09-13T09:39:49.747Z,4.20
2022-09-13T09:42:29.517Z,4.20
2022-09-13T09:45:04.641Z,4.43
2022-09-13T09:47:44.729Z,3.40
2022-09-13T09:50:14.287Z,3.13
2022-09-13T09:52:53.783Z,4.47
2022-09-13T09:55:23.798Z,3.43
2022-09-13T09:57:54.929Z,3.60
2022-09-13T10:00:25.270Z,3.83
2022-09-13T10:02:55.721Z,4.00
2022-09-13T10:05:26.195Z,3.37
2022-09-13T10:08:26.766Z,3.20
2022-09-13T10:11:02.029Z,3.80
2022-09-13T10:13:31.886Z,3.97
2022-09-13T10:16:05.355Z,3.43
2022-09-13T10:18:45.314Z,3.00
2022-09-13T10:21:27.126Z,3.33
2022-09-13T10:24:18.210Z,3.23
2022-09-13T10:26:46.215Z,3.67
2022-09-13T10:29:17.741Z,4.07
2022-09-13T10:31:50.003Z,4.17
2022-09-13T10:34:32.989Z,4.10
2022-09-13T10:37:21.449Z,4.33
2022-09-13T10:40:07.368Z,4.63
2022-09-13T10:42:35.399Z,5.00
2022-09-13T10:45:06.456Z,4.40
2022-09-13T10:47:44.159Z,3.10
2022-09-13T10:50:34.050Z,2.60
2022-09-13T10:53:02.133Z,2.17
2022-09-13T10:55:36.455Z,2.90
2022-09-13T10:58:03.359Z,3.13
2022-09-13T11:00:44.473Z,2.90
2022-09-13T11:03:43.751Z,2.70
2022-09-13T11:06:34.634Z,2.10
2022-09-13T11:09:20.167Z,3.10
2022-09-13T11:12:06.739Z,1.87
2022-09-13T11:14:59.436Z,2.47
2022-09-13T11:17:45.136Z,1.80
2022-09-13T11:20:15.253Z,2.23
2022-09-13T11:22:48.176Z,2.80
2022-09-13T11:25:52.901Z,2.10
2022-09-13T11:28:38.890Z,2.10
2022-09-13T11:31:06.303Z,2.23
2022-09-13T11:33:57.679Z,2.00
2022-09-13T11:36:40.334Z,2.50
2022-09-13T11:39:29.060Z,3.10
2022-09-13T11:42:05.674Z,2.37
2022-09-13T11:44:48.156Z,2.23
2022-09-13T11:47:29.456Z,2.30
2022-09-13T11:50:21.554Z,2.40
2022-09-13T11:53:17.492Z,2.33
2022-09-13T11:55:58.599Z,2.73
2022-09-13T11:58:55.109Z,2.10
2022-09-13T12:01:29.335Z,2.07
2022-09-13T12:04:01.890Z,2.13
2022-09-13T12:06:42.931Z,1.70
2022-09-13T12:09:25.449Z,1.90
2022-09-13T12:12:03.516Z,2.00
2022-09-13T12:14:39.234Z,2.13
2022-09-13T12:17:24.295Z,1.90
2022-09-13T12:19:55.006Z,1.80
2022-09-13T12:22:30.711Z,2.30
2022-09-13T12:25:03.541Z,2.07
2022-09-13T12:27:54.370Z,2.10
2022-09-13T12:30:22.569Z,2.10
2022-09-13T12:32:50.361Z,2.43
2022-09-13T12:35:29.265Z,1.90
2022-09-13T12:38:16.370Z,2.47
2022-09-13T12:41:04.642Z,2.33
2022-09-13T12:44:10.098Z,1.90
2022-09-13T12:46:54.619Z,2.27
2022-09-13T12:49:33.847Z,1.80
2022-09-13T12:52:22.856Z,2.17
2022-09-13T12:54:55.357Z,8.13
2022-09-13T12:57:28.424Z,2.00
2022-09-13T12:59:59.616Z,2.53
2022-09-13T13:02:41.322Z,1.87
2022-09-13T13:05:27.312Z,1.90
2022-09-13T13:07:58.482Z,2.60
2022-09-13T13:10:32.748Z,1.83
2022-09-13T13:13:19.751Z,2.33
2022-09-13T13:15:50.098Z,2.00
2022-09-13T13:18:24.337Z,1.80
2022-09-13T13:20:54.388Z,2.17
2022-09-13T13:23:28.681Z,2.00
2022-09-13T13:26:42.886Z,2.30
2022-09-13T13:29:17.316Z,2.20
2022-09-13T13:32:11.032Z,1.90
2022-09-13T13:34:49.153Z,1.63
2022-09-13T13:37:18.558Z,2.20
2022-09-13T13:40:10.180Z,2.10
2022-09-13T13:42:39.645Z,2.10
2022-09-13T13:45:17.929Z,2.00
2022-09-13T13:48:15.571Z,1.67
2022-09-13T13:51:10.841Z,2.00
2022-09-13T13:53:43.844Z,1.80
2022-09-13T13:56:47.313Z,2.07
2022-09-13T13:59:25.950Z,1.80
2022-09-13T14:01:59.224Z,2.30
2022-09-13T14:05:07.125Z,2.10
2022-09-13T14:07:55.484Z,1.70
2022-09-13T14:10:25.508Z,2.10
2022-09-13T14:13:20.816Z,2.00
2022-09-13T14:15:51.950Z,2.40
2022-09-13T14:18:24.892Z,1.87
2022-09-13T14:21:18.373Z,2.07
2022-09-13T14:23:45.364Z,2.20
2022-09-13T14:26:12.799Z,1.80
2022-09-13T14:28:40.412Z,1.70
2022-09-13T14:31:07.992Z,1.53
2022-09-13T14:33:37.621Z,1.93
2022-09-13T14:36:06.067Z,1.80
2022-09-13T14:38:35.744Z,1.87
2022-09-13T14:41:29.869Z,1.90
2022-09-13T14:44:21.045Z,2.10
2022-09-13T14:47:14.409Z,2.40
2022-09-13T14:49:49.203Z,2.70
2022-09-13T14:52:39.016Z,1.97
2022-09-13T14:55:13.928Z,2.57
2022-09-13T14:57:46.586Z,2.23
2022-09-13T15:00:19.184Z,1.80
2022-09-13T15:02:58.951Z,2.00
2022-09-13T15:05:31.147Z,2.43
2022-09-13T15:07:58.139Z,2.33
2022-09-13T15:10:28.594Z,2.03
2022-09-13T15:13:09.098Z,1.90
2022-09-13T15:15:43.584Z,1.77
2022-09-13T15:18:20.271Z,2.10
2022-09-13T15:21:04.724Z,2.00
2022-09-13T15:23:38.837Z,1.90
2022-09-13T15:26:19.428Z,1.80
2022-09-13T15:29:00.410Z,2.27
2022-09-13T15:31:32.849Z,2.00
2022-09-13T15:34:17.878Z,1.97
2022-09-13T15:36:46.321Z,1.80
2022-09-13T15:39:18.823Z,1.90
2022-09-13T15:41:55.354Z,1.80
2022-09-13T15:44:24.329Z,2.00
2022-09-13T15:46:54.086Z,2.10
2022-09-13T15:49:24.553Z,1.90
2022-09-13T15:51:56.662Z,2.83
2022-09-13T15:54:26.231Z,1.80
2022-09-13T15:56:53.304Z,2.23
2022-09-13T15:59:21.999Z,2.20
2022-09-13T16:01:50.930Z,2.30
2022-09-13T16:04:18.454Z,1.70
2022-09-13T16:06:46.001Z,2.30
2022-09-13T16:09:24.222Z,2.40
2022-09-13T16:11:52.302Z,2.27
2022-09-13T16:14:20.329Z,2.60
2022-09-13T16:16:47.486Z,2.57
2022-09-13T16:19:19.402Z,1.67
2022-09-13T16:21:47.155Z,2.27
2022-09-13T16:24:14.817Z,1.93
2022-09-13T16:30:31.362Z,2.00
2022-09-13T16:32:58.596Z,2.07
2022-09-13T16:35:29.512Z,1.80
2022-09-13T16:37:56.850Z,1.93
2022-09-13T16:40:24.573Z,2.10
2022-09-13T16:42:52.341Z,1.90
2022-09-13T16:45:19.629Z,2.80
2022-09-13T16:47:46.775Z,3.10
2022-09-13T16:50:14.252Z,2.60
2022-09-13T16:52:41.300Z,2.93
2022-09-13T16:55:08.838Z,2.97
2022-09-13T16:57:35.982Z,1.83
2022-09-13T17:00:08.601Z,2.60
2022-09-13T17:02:35.936Z,2.60
2022-09-13T17:05:03.886Z,2.93
2022-09-13T17:07:31.614Z,2.63
2022-09-13T17:09:58.582Z,3.50
2022-09-13T17:12:25.561Z,2.63
2022-09-13T17:14:53.041Z,2.03
2022-09-13T17:17:20.276Z,2.10
2022-09-13T17:19:47.632Z,2.43
2022-09-13T17:22:14.690Z,2.33
2022-09-13T17:24:42.878Z,2.07
2022-09-13T17:27:09.889Z,2.57
2022-09-13T17:29:36.919Z,2.17
2022-09-13T17:32:05.861Z,3.03
2022-09-13T17:34:34.680Z,2.30
2022-09-13T17:37:03.726Z,2.60
2022-09-13T17:39:31.319Z,2.60
2022-09-13T17:41:58.944Z,3.27
2022-09-13T17:44:26.091Z,2.30
2022-09-13T17:46:53.132Z,2.33
2022-09-13T17:49:20.687Z,2.40
2022-09-13T17:51:47.788Z,1.97
2022-09-13T17:54:14.765Z,2.10
2022-09-13T17:56:43.985Z,2.10
2022-09-13T17:59:18.254Z,2.13
2022-09-13T18:01:51.453Z,2.40
2022-09-13T18:04:21.048Z,2.60
2022-09-13T18:06:48.529Z,2.30
2022-09-13T18:09:16.124Z,2.17
2022-09-13T18:11:43.558Z,1.70
2022-09-13T18:14:15.463Z,1.90
2022-09-13T18:16:43.950Z,2.10
2022-09-13T18:19:11.675Z,1.93
2022-09-13T18:21:38.708Z,1.70
2022-09-13T18:24:06.896Z,2.07
2022-09-13T18:26:34.103Z,1.57
2022-09-13T18:29:03.846Z,1.93
2022-09-13T18:31:33.012Z,1.60
2022-09-13T18:34:03.574Z,2.07
2022-09-13T18:36:33.330Z,1.50
2022-09-13T18:39:03.914Z,1.50
2022-09-13T18:41:42.082Z,2.20
2022-09-13T18:44:13.170Z,1.43
2022-09-13T18:46:41.416Z,1.80
2022-09-13T18:49:09.681Z,1.50
2022-09-13T18:51:37.568Z,1.60
2022-09-13T18:54:06.882Z,1.50
2022-09-13T18:56:34.934Z,1.43
2022-09-13T18:59:04.095Z,1.83
2022-09-13T19:01:33.737Z,1.53
2022-09-13T19:04:06.155Z,1.30
2022-09-13T19:06:35.469Z,1.63
2022-09-13T19:09:03.803Z,1.13
2022-09-13T19:11:51.762Z,1.10
2022-09-13T19:14:23.851Z,1.50
2022-09-13T19:16:52.427Z,1.20
2022-09-13T19:19:19.708Z,1.10
2022-09-13T19:21:47.166Z,1.37
2022-09-13T19:24:19.563Z,1.20
2022-09-13T19:26:50.709Z,1.20
2022-09-13T19:29:20.727Z,1.10
2022-09-13T19:31:49.363Z,1.20
2022-09-13T19:34:18.860Z,1.60
2022-09-13T19:36:46.432Z,1.10
2022-09-13T19:39:13.438Z,1.40
2022-09-13T19:41:41.417Z,1.17
2022-09-13T19:44:09.597Z,1.50
2022-09-13T19:46:39.699Z,1.47
2022-09-13T19:49:08.618Z,1.50
2022-09-13T19:51:38.399Z,1.33
2022-09-13T19:54:07.586Z,1.47
2022-09-13T19:56:38.714Z,1.80
2022-09-13T19:59:07.819Z,1.50
2022-09-13T20:01:39.308Z,1.63
2022-09-13T20:04:11.964Z,1.60
2022-09-13T20:06:45.271Z,1.83
2022-09-13T20:09:13.824Z,1.67
2022-09-13T20:11:44.995Z,1.50
2022-09-13T20:14:13.836Z,2.20
2022-09-13T20:16:42.749Z,1.80
2022-09-13T20:19:38.785Z,1.80
2022-09-13T20:22:01.375Z,1.80
2022-09-13T20:24:28.387Z,2.17
2022-09-13T20:26:55.479Z,2.30
2022-09-13T20:29:22.435Z,1.90
2022-09-13T20:31:49.399Z,1.80
2022-09-13T20:34:16.535Z,1.70
2022-09-13T20:36:47.268Z,1.50
2022-09-13T20:39:17.296Z,1.30
2022-09-13T20:41:45.054Z,1.57
2022-09-13T20:44:12.250Z,1.63
2022-09-13T20:46:40.526Z,1.17
2022-09-13T20:49:09.291Z,1.53
2022-09-13T20:51:37.389Z,1.70
2022-09-13T20:54:05.426Z,1.70
2022-09-13T20:56:34.569Z,1.20
2022-09-13T20:59:02.413Z,1.07
2022-09-13T21:01:31.136Z,1.30
2022-09-13T21:03:59.467Z,1.30
2022-09-13T21:06:28.639Z,0.97
2022-09-13T21:08:59.732Z,1.23
2022-09-13T21:11:34.020Z,1.03
2022-09-13T21:14:09.781Z,1.20
2022-09-13T21:16:39.576Z,1.30
2022-09-13T21:19:07.959Z,1.13
2022-09-13T21:21:40.041Z,1.30
2022-09-13T21:24:09.954Z,1.60
2022-09-13T21:26:39.689Z,1.20
2022-09-13T21:29:06.771Z,1.10
2022-09-13T21:31:34.942Z,1.40
2022-09-13T21:34:07.561Z,1.20
2022-09-13T21:36:35.992Z,1.20
2022-09-13T21:39:04.618Z,1.40
2022-09-13T21:41:32.230Z,1.20
2022-09-13T21:43:59.374Z,1.10
2022-09-13T21:46:29.281Z,1.47
2022-09-13T21:48:58.631Z,1.40
2022-09-13T21:51:33.960Z,1.90
2022-09-13T21:54:02.777Z,1.33
2022-09-13T21:56:32.866Z,1.10
2022-09-13T21:59:06.245Z,1.10
2022-09-13T22:01:35.972Z,1.57
2022-09-13T22:04:03.827Z,1.30
2022-09-13T22:06:33.825Z,1.23
2022-09-13T22:09:05.322Z,1.30
2022-09-13T22:11:35.843Z,1.43
2022-09-13T22:14:03.193Z,1.13
2022-09-13T22:16:32.983Z,1.13
2022-09-13T22:19:10.128Z,1.23
2022-09-13T22:21:40.991Z,1.17
2022-09-13T22:24:09.577Z,1.30
2022-09-13T22:26:40.498Z,1.20
2022-09-13T22:29:08.281Z,1.20
2022-09-13T22:31:40.009Z,1.50
2022-09-13T22:34:11.234Z,1.20
2022-09-13T22:36:39.015Z,1.40
2022-09-13T22:39:05.977Z,1.67
2022-09-13T22:41:34.425Z,1.17
2022-09-13T22:44:02.596Z,1.00
2022-09-13T22:46:33.845Z,1.40
2022-09-13T22:49:01.712Z,1.63
2022-09-13T22:51:29.272Z,1.23
2022-09-13T22:53:57.172Z,1.20
2022-09-13T22:56:28.909Z,1.30
2022-09-13T22:59:01.727Z,1.40
2022-09-13T23:01:30.085Z,1.37
2022-09-13T23:03:57.550Z,1.53
2022-09-13T23:06:26.227Z,1.40
2022-09-13T23:08:55.502Z,1.93
2022-09-13T23:11:28.781Z,1.47
2022-09-13T23:14:00.077Z,1.40
2022-09-13T23:16:39.770Z,1.30
2022-09-13T23:19:07.357Z,0.90
2022-09-13T23:21:36.985Z,1.20
2022-09-13T23:24:06.115Z,1.17
2022-09-13T23:26:34.215Z,1.13
2022-09-13T23:29:02.648Z,1.60
2022-09-13T23:31:32.155Z,1.20
2022-09-13T23:34:02.426Z,1.33
2022-09-13T23:36:35.792Z,1.40
2022-09-13T23:39:04.572Z,1.40
2022-09-13T23:41:33.402Z,1.83
2022-09-13T23:44:01.307Z,1.20
2022-09-13T23:46:29.176Z,1.40
2022-09-13T23:48:56.555Z,1.83
2022-09-13T23:51:25.484Z,1.37
2022-09-13T23:53:56.964Z,1.40
2022-09-13T23:56:25.839Z,1.60
2022-09-13T23:58:53.005Z,2.40
